sensor_id;sensor_type;location;lat;lon;timestamp;P1;durP1;ratioP1;P2;durP2;ratioP2
51296;SDS011;37380;45.186;9.792;2022-12-05T00:02:14;60.70;;;47.42;;
51296;SDS011;37380;45.186;9.792;2022-12-05T00:04:48;55.03;;;44.08;;
51296;SDS011;37380;45.186;9.792;2022-12-05T00:07:49;58.00;;;48.22;;
51296;SDS011;37380;45.186;9.792;2022-12-05T00:10:43;58.85;;;51.17;;
51296;SDS011;37380;45.186;9.792;2022-12-05T00:13:10;64.72;;;50.17;;
51296;SDS011;37380;45.186;9.792;2022-12-05T00:15:38;58.75;;;44.90;;
51296;SDS011;37380;45.186;9.792;2022-12-05T00:18:08;60.45;;;49.47;;
51296;SDS011;37380;45.186;9.792;2022-12-05T00:20:35;58.88;;;48.20;;
51296;SDS011;37380;45.186;9.792;2022-12-05T00:23:02;59.40;;;47.33;;
51296;SDS011;37380;45.186;9.792;2022-12-05T00:25:34;54.10;;;46.05;;
51296;SDS011;37380;45.186;9.792;2022-12-05T00:28:02;59.15;;;45.85;;
51296;SDS011;37380;45.186;9.792;2022-12-05T00:30:30;60.15;;;45.85;;
51296;SDS011;37380;45.186;9.792;2022-12-05T00:32:57;58.83;;;45.92;;
51296;SDS011;37380;45.186;9.792;2022-12-05T00:35:32;59.13;;;43.42;;
51296;SDS011;37380;45.186;9.792;2022-12-05T00:38:33;50.30;;;42.70;;
51296;SDS011;37380;45.186;9.792;2022-12-05T00:41:28;54.97;;;43.55;;
51296;SDS011;37380;45.186;9.792;2022-12-05T00:44:24;51.47;;;42.65;;
51296;SDS011;37380;45.186;9.792;2022-12-05T00:47:02;45.92;;;38.92;;
51296;SDS011;37380;45.186;9.792;2022-12-05T00:49:29;46.13;;;39.42;;
51296;SDS011;37380;45.186;9.792;2022-12-05T00:51:56;49.40;;;40.00;;
51296;SDS011;37380;45.186;9.792;2022-12-05T00:54:24;54.90;;;41.08;;
51296;SDS011;37380;45.186;9.792;2022-12-05T00:56:52;48.08;;;39.08;;
51296;SDS011;37380;45.186;9.792;2022-12-05T00:59:25;46.72;;;34.42;;
51296;SDS011;37380;45.186;9.792;2022-12-05T01:01:54;49.88;;;38.63;;
51296;SDS011;37380;45.186;9.792;2022-12-05T01:04:28;44.40;;;33.90;;
51296;SDS011;37380;45.186;9.792;2022-12-05T01:07:29;47.38;;;37.20;;
51296;SDS011;37380;45.186;9.792;2022-12-05T01:10:23;45.50;;;38.75;;
51296;SDS011;37380;45.186;9.792;2022-12-05T01:12:50;46.20;;;40.47;;
51296;SDS011;37380;45.186;9.792;2022-12-05T01:15:17;52.53;;;38.75;;
51296;SDS011;37380;45.186;9.792;2022-12-05T01:17:45;46.03;;;39.70;;
51296;SDS011;37380;45.186;9.792;2022-12-05T01:20:13;51.35;;;41.38;;
51296;SDS011;37380;45.186;9.792;2022-12-05T01:22:48;49.85;;;39.55;;
51296;SDS011;37380;45.186;9.792;2022-12-05T01:25:43;51.15;;;38.85;;
51296;SDS011;37380;45.186;9.792;2022-12-05T01:28:12;55.20;;;43.10;;
51296;SDS011;37380;45.186;9.792;2022-12-05T01:30:42;53.60;;;40.08;;
51296;SDS011;37380;45.186;9.792;2022-12-05T01:33:12;45.80;;;35.50;;
51296;SDS011;37380;45.186;9.792;2022-12-05T01:35:40;51.47;;;40.03;;
51296;SDS011;37380;45.186;9.792;2022-12-05T01:38:15;48.33;;;39.25;;
51296;SDS011;37380;45.186;9.792;2022-12-05T01:41:20;58.25;;;44.08;;
51296;SDS011;37380;45.186;9.792;2022-12-05T01:46:44;49.45;;;41.85;;
51296;SDS011;37380;45.186;9.792;2022-12-05T01:49:26;60.15;;;43.67;;
51296;SDS011;37380;45.186;9.792;2022-12-05T01:52:25;51.97;;;37.72;;
51296;SDS011;37380;45.186;9.792;2022-12-05T01:55:28;52.85;;;38.25;;
51296;SDS011;37380;45.186;9.792;2022-12-05T01:58:09;55.30;;;39.42;;
51296;SDS011;37380;45.186;9.792;2022-12-05T02:00:40;48.50;;;38.22;;
51296;SDS011;37380;45.186;9.792;2022-12-05T02:03:16;50.30;;;39.22;;
51296;SDS011;37380;45.186;9.792;2022-12-05T02:06:18;54.97;;;40.78;;
51296;SDS011;37380;45.186;9.792;2022-12-05T02:09:14;52.70;;;38.83;;
51296;SDS011;37380;45.186;9.792;2022-12-05T02:11:52;52.55;;;38.75;;
51296;SDS011;37380;45.186;9.792;2022-12-05T02:23:00;48.20;;;34.97;;
51296;SDS011;37380;45.186;9.792;2022-12-05T02:30:57;44.03;;;36.40;;
51296;SDS011;37380;45.186;9.792;2022-12-05T02:33:41;39.88;;;34.00;;
51296;SDS011;37380;45.186;9.792;2022-12-05T02:36:52;41.78;;;34.22;;
51296;SDS011;37380;45.186;9.792;2022-12-05T02:46:18;41.78;;;32.25;;
51296;SDS011;37380;45.186;9.792;2022-12-05T02:48:49;37.58;;;29.83;;
51296;SDS011;37380;45.186;9.792;2022-12-05T02:51:23;39.22;;;30.25;;
51296;SDS011;37380;45.186;9.792;2022-12-05T02:53:55;39.20;;;30.52;;
51296;SDS011;37380;45.186;9.792;2022-12-05T02:56:25;45.83;;;36.50;;
51296;SDS011;37380;45.186;9.792;2022-12-05T02:58:55;52.83;;;40.88;;
51296;SDS011;37380;45.186;9.792;2022-12-05T03:01:23;47.28;;;37.30;;
51296;SDS011;37380;45.186;9.792;2022-12-05T03:04:00;51.25;;;37.35;;
51296;SDS011;37380;45.186;9.792;2022-12-05T03:07:04;38.83;;;31.58;;
51296;SDS011;37380;45.186;9.792;2022-12-05T03:12:35;35.22;;;29.45;;
51296;SDS011;37380;45.186;9.792;2022-12-05T03:17:48;39.90;;;27.73;;
51296;SDS011;37380;45.186;9.792;2022-12-05T03:20:28;32.50;;;23.05;;
51296;SDS011;37380;45.186;9.792;2022-12-05T03:23:06;27.45;;;24.08;;
51296;SDS011;37380;45.186;9.792;2022-12-05T03:31:20;29.33;;;23.42;;
51296;SDS011;37380;45.186;9.792;2022-12-05T03:33:56;28.95;;;24.77;;
51296;SDS011;37380;45.186;9.792;2022-12-05T03:36:37;32.58;;;26.65;;
51296;SDS011;37380;45.186;9.792;2022-12-05T03:39:46;29.38;;;24.30;;
51296;SDS011;37380;45.186;9.792;2022-12-05T03:43:00;30.02;;;24.55;;
51296;SDS011;37380;45.186;9.792;2022-12-05T03:46:13;30.00;;;22.90;;
51296;SDS011;37380;45.186;9.792;2022-12-05T03:51:54;29.20;;;26.00;;
51296;SDS011;37380;45.186;9.792;2022-12-05T03:54:25;27.73;;;23.10;;
51296;SDS011;37380;45.186;9.792;2022-12-05T03:57:03;28.35;;;21.40;;
51296;SDS011;37380;45.186;9.792;2022-12-05T03:59:53;27.33;;;21.65;;
51296;SDS011;37380;45.186;9.792;2022-12-05T04:03:17;29.15;;;23.75;;
51296;SDS011;37380;45.186;9.792;2022-12-05T04:05:59;28.65;;;23.33;;
51296;SDS011;37380;45.186;9.792;2022-12-05T04:08:57;28.30;;;24.25;;
51296;SDS011;37380;45.186;9.792;2022-12-05T04:11:29;29.13;;;25.92;;
51296;SDS011;37380;45.186;9.792;2022-12-05T04:14:09;30.67;;;23.92;;
51296;SDS011;37380;45.186;9.792;2022-12-05T04:16:41;33.80;;;25.77;;
51296;SDS011;37380;45.186;9.792;2022-12-05T04:22:37;26.70;;;22.88;;
51296;SDS011;37380;45.186;9.792;2022-12-05T04:25:35;26.77;;;21.88;;
51296;SDS011;37380;45.186;9.792;2022-12-05T04:30:39;29.63;;;24.58;;
51296;SDS011;37380;45.186;9.792;2022-12-05T04:38:53;29.15;;;25.50;;
51296;SDS011;37380;45.186;9.792;2022-12-05T04:42:05;28.65;;;23.70;;
51296;SDS011;37380;45.186;9.792;2022-12-05T04:45:11;25.92;;;23.20;;
51296;SDS011;37380;45.186;9.792;2022-12-05T04:48:13;26.83;;;23.20;;
51296;SDS011;37380;45.186;9.792;2022-12-05T04:50:43;27.73;;;22.42;;
51296;SDS011;37380;45.186;9.792;2022-12-05T04:53:14;33.72;;;21.60;;
51296;SDS011;37380;45.186;9.792;2022-12-05T04:55:49;27.00;;;24.10;;
51296;SDS011;37380;45.186;9.792;2022-12-05T04:58:48;24.80;;;22.15;;
51296;SDS011;37380;45.186;9.792;2022-12-05T05:01:18;28.63;;;23.48;;
51296;SDS011;37380;45.186;9.792;2022-12-05T05:03:58;26.05;;;23.42;;
51296;SDS011;37380;45.186;9.792;2022-12-05T05:06:58;28.92;;;23.08;;
51296;SDS011;37380;45.186;9.792;2022-12-05T05:09:37;25.90;;;23.17;;
51296;SDS011;37380;45.186;9.792;2022-12-05T05:12:32;25.75;;;21.92;;
51296;SDS011;37380;45.186;9.792;2022-12-05T05:14:59;27.02;;;24.23;;
51296;SDS011;37380;45.186;9.792;2022-12-05T05:17:27;24.13;;;21.58;;
51296;SDS011;37380;45.186;9.792;2022-12-05T05:19:54;24.60;;;21.23;;
51296;SDS011;37380;45.186;9.792;2022-12-05T05:22:49;23.70;;;19.60;;
51296;SDS011;37380;45.186;9.792;2022-12-05T05:25:22;24.88;;;20.48;;
51296;SDS011;37380;45.186;9.792;2022-12-05T05:27:58;23.42;;;21.02;;
51296;SDS011;37380;45.186;9.792;2022-12-05T05:30:52;20.85;;;18.73;;
51296;SDS011;37380;45.186;9.792;2022-12-05T05:33:26;25.13;;;20.15;;
51296;SDS011;37380;45.186;9.792;2022-12-05T05:36:21;22.92;;;20.38;;
51296;SDS011;37380;45.186;9.792;2022-12-05T05:38:58;23.60;;;19.92;;
51296;SDS011;37380;45.186;9.792;2022-12-05T05:42:00;24.85;;;22.25;;
51296;SDS011;37380;45.186;9.792;2022-12-05T05:45:01;21.52;;;19.23;;
51296;SDS011;37380;45.186;9.792;2022-12-05T05:47:57;22.75;;;20.35;;
51296;SDS011;37380;45.186;9.792;2022-12-05T05:50:24;23.48;;;19.38;;
51296;SDS011;37380;45.186;9.792;2022-12-05T05:52:52;24.38;;;21.88;;
51296;SDS011;37380;45.186;9.792;2022-12-05T05:55:19;24.15;;;20.60;;
51296;SDS011;37380;45.186;9.792;2022-12-05T05:57:47;27.27;;;24.00;;
51296;SDS011;37380;45.186;9.792;2022-12-05T06:00:20;28.90;;;22.90;;
51296;SDS011;37380;45.186;9.792;2022-12-05T06:03:21;25.08;;;22.33;;
51296;SDS011;37380;45.186;9.792;2022-12-05T06:06:23;25.45;;;22.75;;
51296;SDS011;37380;45.186;9.792;2022-12-05T06:09:17;27.80;;;25.00;;
51296;SDS011;37380;45.186;9.792;2022-12-05T06:11:44;27.05;;;24.17;;
51296;SDS011;37380;45.186;9.792;2022-12-05T06:14:18;28.05;;;24.33;;
51296;SDS011;37380;45.186;9.792;2022-12-05T06:17:19;32.58;;;25.70;;
51296;SDS011;37380;45.186;9.792;2022-12-05T06:20:13;31.15;;;27.80;;
51296;SDS011;37380;45.186;9.792;2022-12-05T06:22:40;31.70;;;25.63;;
51296;SDS011;37380;45.186;9.792;2022-12-05T06:25:09;31.88;;;27.08;;
51296;SDS011;37380;45.186;9.792;2022-12-05T06:27:38;26.63;;;24.05;;
51296;SDS011;37380;45.186;9.792;2022-12-05T06:30:05;30.58;;;23.52;;
51296;SDS011;37380;45.186;9.792;2022-12-05T06:32:32;26.63;;;23.88;;
51296;SDS011;37380;45.186;9.792;2022-12-05T06:34:59;27.65;;;24.02;;
51296;SDS011;37380;45.186;9.792;2022-12-05T06:37:39;29.30;;;26.20;;
51296;SDS011;37380;45.186;9.792;2022-12-05T06:40:43;28.63;;;25.67;;
51296;SDS011;37380;45.186;9.792;2022-12-05T06:43:44;33.95;;;28.52;;
51296;SDS011;37380;45.186;9.792;2022-12-05T06:46:48;28.80;;;24.83;;
51296;SDS011;37380;45.186;9.792;2022-12-05T06:49:49;31.88;;;26.83;;
51296;SDS011;37380;45.186;9.792;2022-12-05T06:52:36;36.90;;;27.70;;
51296;SDS011;37380;45.186;9.792;2022-12-05T06:55:04;30.42;;;25.10;;
51296;SDS011;37380;45.186;9.792;2022-12-05T06:57:34;34.60;;;27.35;;
51296;SDS011;37380;45.186;9.792;2022-12-05T07:00:07;39.17;;;29.17;;
51296;SDS011;37380;45.186;9.792;2022-12-05T07:03:26;35.20;;;27.45;;
51296;SDS011;37380;45.186;9.792;2022-12-05T07:06:20;39.60;;;29.90;;
51296;SDS011;37380;45.186;9.792;2022-12-05T07:08:48;34.13;;;30.48;;
51296;SDS011;37380;45.186;9.792;2022-12-05T07:11:16;37.55;;;29.95;;
51296;SDS011;37380;45.186;9.792;2022-12-05T07:13:43;31.85;;;27.17;;
51296;SDS011;37380;45.186;9.792;2022-12-05T07:16:11;32.13;;;27.23;;
51296;SDS011;37380;45.186;9.792;2022-12-05T07:18:39;36.67;;;27.80;;
51296;SDS011;37380;45.186;9.792;2022-12-05T07:21:07;45.80;;;31.90;;
51296;SDS011;37380;45.186;9.792;2022-12-05T07:23:40;42.67;;;32.47;;
51296;SDS011;37380;45.186;9.792;2022-12-05T07:26:10;37.65;;;32.30;;
51296;SDS011;37380;45.186;9.792;2022-12-05T07:28:40;36.95;;;30.25;;
51296;SDS011;37380;45.186;9.792;2022-12-05T07:31:23;36.55;;;31.25;;
51296;SDS011;37380;45.186;9.792;2022-12-05T07:34:26;32.10;;;27.90;;
51296;SDS011;37380;45.186;9.792;2022-12-05T07:37:27;34.58;;;30.00;;
51296;SDS011;37380;45.186;9.792;2022-12-05T07:40:28;37.67;;;30.48;;
51296;SDS011;37380;45.186;9.792;2022-12-05T07:43:17;35.42;;;29.80;;
51296;SDS011;37380;45.186;9.792;2022-12-05T07:46:07;35.58;;;29.08;;
51296;SDS011;37380;45.186;9.792;2022-12-05T07:48:38;41.60;;;32.08;;
51296;SDS011;37380;45.186;9.792;2022-12-05T07:51:06;40.83;;;31.70;;
51296;SDS011;37380;45.186;9.792;2022-12-05T07:53:37;39.58;;;30.00;;
51296;SDS011;37380;45.186;9.792;2022-12-05T07:56:06;42.70;;;32.13;;
51296;SDS011;37380;45.186;9.792;2022-12-05T07:58:35;42.25;;;29.60;;
51296;SDS011;37380;45.186;9.792;2022-12-05T08:01:15;40.63;;;30.98;;
51296;SDS011;37380;45.186;9.792;2022-12-05T08:03:54;36.92;;;30.67;;
51296;SDS011;37380;45.186;9.792;2022-12-05T08:07:01;43.80;;;30.55;;
51296;SDS011;37380;45.186;9.792;2022-12-05T08:09:55;46.45;;;33.22;;
51296;SDS011;37380;45.186;9.792;2022-12-05T08:12:23;46.05;;;32.67;;
51296;SDS011;37380;45.186;9.792;2022-12-05T08:14:57;43.42;;;32.92;;
51296;SDS011;37380;45.186;9.792;2022-12-05T08:17:58;46.63;;;34.40;;
51296;SDS011;37380;45.186;9.792;2022-12-05T08:20:53;49.78;;;34.47;;
51296;SDS011;37380;45.186;9.792;2022-12-05T08:23:20;45.80;;;32.65;;
51296;SDS011;37380;45.186;9.792;2022-12-05T08:25:47;50.50;;;35.03;;
51296;SDS011;37380;45.186;9.792;2022-12-05T08:28:15;48.97;;;35.13;;
51296;SDS011;37380;45.186;9.792;2022-12-05T08:30:42;50.65;;;34.15;;
51296;SDS011;37380;45.186;9.792;2022-12-05T08:33:09;59.20;;;36.72;;
51296;SDS011;37380;45.186;9.792;2022-12-05T08:35:43;53.15;;;35.97;;
51296;SDS011;37380;45.186;9.792;2022-12-05T08:38:44;45.45;;;33.72;;
51296;SDS011;37380;45.186;9.792;2022-12-05T08:41:46;51.25;;;34.53;;
51296;SDS011;37380;45.186;9.792;2022-12-05T08:44:48;42.92;;;33.72;;
51296;SDS011;37380;45.186;9.792;2022-12-05T08:47:50;45.17;;;32.28;;
51296;SDS011;37380;45.186;9.792;2022-12-05T08:50:29;49.65;;;35.55;;
51296;SDS011;37380;45.186;9.792;2022-12-05T08:53:24;50.95;;;34.78;;
51296;SDS011;37380;45.186;9.792;2022-12-05T08:55:53;58.13;;;34.25;;
51296;SDS011;37380;45.186;9.792;2022-12-05T08:58:20;61.35;;;37.25;;
51296;SDS011;37380;45.186;9.792;2022-12-05T09:00:48;49.45;;;34.97;;
51296;SDS011;37380;45.186;9.792;2022-12-05T09:03:22;46.33;;;31.75;;
51296;SDS011;37380;45.186;9.792;2022-12-05T09:06:24;54.28;;;32.30;;
51296;SDS011;37380;45.186;9.792;2022-12-05T09:09:18;45.70;;;32.22;;
51296;SDS011;37380;45.186;9.792;2022-12-05T09:11:45;53.03;;;33.05;;
51296;SDS011;37380;45.186;9.792;2022-12-05T09:14:14;56.30;;;37.53;;
51296;SDS011;37380;45.186;9.792;2022-12-05T09:16:49;45.17;;;32.13;;
51296;SDS011;37380;45.186;9.792;2022-12-05T09:19:43;47.72;;;31.75;;
51296;SDS011;37380;45.186;9.792;2022-12-05T09:22:11;49.40;;;32.90;;
51296;SDS011;37380;45.186;9.792;2022-12-05T09:24:39;50.53;;;32.85;;
51296;SDS011;37380;45.186;9.792;2022-12-05T09:27:06;48.28;;;30.92;;
51296;SDS011;37380;45.186;9.792;2022-12-05T09:29:34;52.72;;;35.20;;
51296;SDS011;37380;45.186;9.792;2022-12-05T09:32:01;44.13;;;33.00;;
51296;SDS011;37380;45.186;9.792;2022-12-05T09:34:28;41.70;;;31.73;;
51296;SDS011;37380;45.186;9.792;2022-12-05T09:36:57;38.08;;;27.83;;
51296;SDS011;37380;45.186;9.792;2022-12-05T09:40:06;44.05;;;28.38;;
51296;SDS011;37380;45.186;9.792;2022-12-05T09:43:03;44.08;;;29.25;;
51296;SDS011;37380;45.186;9.792;2022-12-05T09:46:07;37.47;;;24.17;;
51296;SDS011;37380;45.186;9.792;2022-12-05T09:48:53;42.22;;;25.20;;
51296;SDS011;37380;45.186;9.792;2022-12-05T09:51:57;40.40;;;25.75;;
51296;SDS011;37380;45.186;9.792;2022-12-05T09:54:52;40.30;;;26.80;;
51296;SDS011;37380;45.186;9.792;2022-12-05T09:57:29;46.45;;;28.90;;
51296;SDS011;37380;45.186;9.792;2022-12-05T10:00:02;53.42;;;29.00;;
51296;SDS011;37380;45.186;9.792;2022-12-05T10:06:20;48.50;;;29.05;;
51296;SDS011;37380;45.186;9.792;2022-12-05T10:17:24;50.67;;;28.33;;
51296;SDS011;37380;45.186;9.792;2022-12-05T10:19:55;51.60;;;30.48;;
51296;SDS011;37380;45.186;9.792;2022-12-05T10:22:29;49.13;;;26.80;;
51296;SDS011;37380;45.186;9.792;2022-12-05T10:25:00;42.03;;;25.98;;
51296;SDS011;37380;45.186;9.792;2022-12-05T10:27:40;42.38;;;26.83;;
51296;SDS011;37380;45.186;9.792;2022-12-05T10:30:32;50.65;;;24.15;;
51296;SDS011;37380;45.186;9.792;2022-12-05T10:33:22;54.22;;;25.98;;
51296;SDS011;37380;45.186;9.792;2022-12-05T10:35:51;56.45;;;28.75;;
51296;SDS011;37380;45.186;9.792;2022-12-05T10:38:24;54.22;;;29.77;;
51296;SDS011;37380;45.186;9.792;2022-12-05T10:40:54;57.60;;;27.40;;
51296;SDS011;37380;45.186;9.792;2022-12-05T10:43:59;51.35;;;28.33;;
51296;SDS011;37380;45.186;9.792;2022-12-05T10:46:41;47.05;;;26.95;;
51296;SDS011;37380;45.186;9.792;2022-12-05T10:49:11;55.95;;;28.15;;
51296;SDS011;37380;45.186;9.792;2022-12-05T10:51:40;56.80;;;29.88;;
51296;SDS011;37380;45.186;9.792;2022-12-05T10:54:19;51.40;;;25.08;;
51296;SDS011;37380;45.186;9.792;2022-12-05T10:57:25;58.63;;;29.38;;
51296;SDS011;37380;45.186;9.792;2022-12-05T10:59:56;55.03;;;26.38;;
51296;SDS011;37380;45.186;9.792;2022-12-05T11:02:26;61.25;;;29.77;;
51296;SDS011;37380;45.186;9.792;2022-12-05T11:05:25;53.75;;;27.95;;
51296;SDS011;37380;45.186;9.792;2022-12-05T11:08:20;57.47;;;28.55;;
51296;SDS011;37380;45.186;9.792;2022-12-05T11:13:50;58.53;;;30.20;;
51296;SDS011;37380;45.186;9.792;2022-12-05T11:16:26;48.85;;;27.20;;
51296;SDS011;37380;45.186;9.792;2022-12-05T11:21:47;48.75;;;28.02;;
51296;SDS011;37380;45.186;9.792;2022-12-05T11:24:19;54.28;;;27.33;;
51296;SDS011;37380;45.186;9.792;2022-12-05T11:30:20;61.38;;;30.63;;
51296;SDS011;37380;45.186;9.792;2022-12-05T11:32:50;62.08;;;33.50;;
51296;SDS011;37380;45.186;9.792;2022-12-05T11:35:42;53.70;;;28.35;;
51296;SDS011;37380;45.186;9.792;2022-12-05T11:38:45;61.00;;;31.65;;
51296;SDS011;37380;45.186;9.792;2022-12-05T11:56:56;61.75;;;29.65;;
51296;SDS011;37380;45.186;9.792;2022-12-05T11:59:52;52.88;;;27.52;;
51296;SDS011;37380;45.186;9.792;2022-12-05T12:06:39;49.22;;;30.10;;
51296;SDS011;37380;45.186;9.792;2022-12-05T12:09:58;46.25;;;27.83;;
51296;SDS011;37380;45.186;9.792;2022-12-05T12:13:00;57.17;;;28.10;;
51296;SDS011;37380;45.186;9.792;2022-12-05T12:21:30;63.63;;;29.73;;
51296;SDS011;37380;45.186;9.792;2022-12-05T12:24:46;56.40;;;27.17;;
51296;SDS011;37380;45.186;9.792;2022-12-05T12:27:30;51.45;;;28.83;;
51296;SDS011;37380;45.186;9.792;2022-12-05T12:30:06;64.25;;;30.73;;
51296;SDS011;37380;45.186;9.792;2022-12-05T12:42:55;59.38;;;29.48;;
51296;SDS011;37380;45.186;9.792;2022-12-05T12:46:37;54.90;;;29.08;;
51296;SDS011;37380;45.186;9.792;2022-12-05T12:56:45;63.50;;;29.52;;
51296;SDS011;37380;45.186;9.792;2022-12-05T12:59:34;54.50;;;27.73;;
51296;SDS011;37380;45.186;9.792;2022-12-05T13:02:21;58.03;;;30.35;;
51296;SDS011;37380;45.186;9.792;2022-12-05T13:05:47;63.95;;;34.33;;
51296;SDS011;37380;45.186;9.792;2022-12-05T13:08:27;44.78;;;27.33;;
51296;SDS011;37380;45.186;9.792;2022-12-05T13:11:01;58.30;;;32.15;;
51296;SDS011;37380;45.186;9.792;2022-12-05T13:13:35;57.58;;;33.45;;
51296;SDS011;37380;45.186;9.792;2022-12-05T13:16:06;56.90;;;31.40;;
51296;SDS011;37380;45.186;9.792;2022-12-05T13:18:34;46.13;;;26.42;;
51296;SDS011;37380;45.186;9.792;2022-12-05T13:21:04;43.53;;;25.13;;
51296;SDS011;37380;45.186;9.792;2022-12-05T13:23:40;47.22;;;28.77;;
51296;SDS011;37380;45.186;9.792;2022-12-05T13:26:15;53.17;;;28.52;;
51296;SDS011;37380;45.186;9.792;2022-12-05T13:28:51;55.60;;;29.38;;
51296;SDS011;37380;45.186;9.792;2022-12-05T13:31:37;43.65;;;23.98;;
51296;SDS011;37380;45.186;9.792;2022-12-05T13:36:52;40.58;;;25.38;;
51296;SDS011;37380;45.186;9.792;2022-12-05T13:39:50;46.78;;;26.23;;
51296;SDS011;37380;45.186;9.792;2022-12-05T13:46:21;57.90;;;31.25;;
51296;SDS011;37380;45.186;9.792;2022-12-05T13:49:35;52.53;;;30.95;;
51296;SDS011;37380;45.186;9.792;2022-12-05T13:52:57;58.78;;;31.20;;
51296;SDS011;37380;45.186;9.792;2022-12-05T13:55:37;65.75;;;28.05;;
51296;SDS011;37380;45.186;9.792;2022-12-05T13:58:56;58.22;;;29.38;;
51296;SDS011;37380;45.186;9.792;2022-12-05T14:03:59;52.58;;;30.92;;
51296;SDS011;37380;45.186;9.792;2022-12-05T14:06:54;69.03;;;34.70;;
51296;SDS011;37380;45.186;9.792;2022-12-05T14:09:47;58.15;;;31.08;;
51296;SDS011;37380;45.186;9.792;2022-12-05T14:12:50;57.20;;;29.25;;
51296;SDS011;37380;45.186;9.792;2022-12-05T14:15:24;58.80;;;30.92;;
51296;SDS011;37380;45.186;9.792;2022-12-05T14:18:00;53.10;;;29.15;;
51296;SDS011;37380;45.186;9.792;2022-12-05T14:35:10;58.75;;;30.50;;
51296;SDS011;37380;45.186;9.792;2022-12-05T14:38:28;57.22;;;31.10;;
51296;SDS011;37380;45.186;9.792;2022-12-05T14:41:32;67.30;;;31.27;;
51296;SDS011;37380;45.186;9.792;2022-12-05T14:44:34;61.53;;;33.03;;
51296;SDS011;37380;45.186;9.792;2022-12-05T14:47:35;58.47;;;32.20;;
51296;SDS011;37380;45.186;9.792;2022-12-05T14:50:44;67.47;;;36.08;;
51296;SDS011;37380;45.186;9.792;2022-12-05T14:53:48;61.35;;;31.45;;
51296;SDS011;37380;45.186;9.792;2022-12-05T14:56:52;63.15;;;34.08;;
51296;SDS011;37380;45.186;9.792;2022-12-05T15:00:13;63.03;;;34.90;;
51296;SDS011;37380;45.186;9.792;2022-12-05T15:03:19;61.47;;;32.80;;
51296;SDS011;37380;45.186;9.792;2022-12-05T15:06:19;58.83;;;34.55;;
51296;SDS011;37380;45.186;9.792;2022-12-05T15:08:49;49.78;;;32.88;;
51296;SDS011;37380;45.186;9.792;2022-12-05T15:11:42;58.67;;;32.47;;
51296;SDS011;37380;45.186;9.792;2022-12-05T15:14:11;61.45;;;32.63;;
51296;SDS011;37380;45.186;9.792;2022-12-05T15:16:44;52.00;;;30.27;;
51296;SDS011;37380;45.186;9.792;2022-12-05T15:19:23;45.92;;;28.92;;
51296;SDS011;37380;45.186;9.792;2022-12-05T15:21:59;49.90;;;29.90;;
51296;SDS011;37380;45.186;9.792;2022-12-05T15:24:35;68.43;;;32.53;;
51296;SDS011;37380;45.186;9.792;2022-12-05T15:27:06;56.47;;;32.88;;
51296;SDS011;37380;45.186;9.792;2022-12-05T15:29:44;53.55;;;31.27;;
51296;SDS011;37380;45.186;9.792;2022-12-05T15:32:39;58.55;;;33.47;;
51296;SDS011;37380;45.186;9.792;2022-12-05T15:35:08;57.80;;;35.85;;
51296;SDS011;37380;45.186;9.792;2022-12-05T15:37:59;52.92;;;32.15;;
51296;SDS011;37380;45.186;9.792;2022-12-05T15:40:31;59.85;;;39.85;;
51296;SDS011;37380;45.186;9.792;2022-12-05T15:46:20;61.13;;;38.17;;
51296;SDS011;37380;45.186;9.792;2022-12-05T15:51:54;65.57;;;39.90;;
51296;SDS011;37380;45.186;9.792;2022-12-05T15:55:14;69.28;;;39.25;;
51296;SDS011;37380;45.186;9.792;2022-12-05T15:57:46;58.00;;;37.10;;
51296;SDS011;37380;45.186;9.792;2022-12-05T16:00:18;60.58;;;38.13;;
51296;SDS011;37380;45.186;9.792;2022-12-05T16:03:02;62.15;;;36.22;;
51296;SDS011;37380;45.186;9.792;2022-12-05T16:06:28;64.05;;;38.80;;
51296;SDS011;37380;45.186;9.792;2022-12-05T16:09:25;72.32;;;41.83;;
51296;SDS011;37380;45.186;9.792;2022-12-05T16:12:00;69.40;;;40.17;;
51296;SDS011;37380;45.186;9.792;2022-12-05T16:14:33;73.63;;;42.20;;
51296;SDS011;37380;45.186;9.792;2022-12-05T16:17:23;64.78;;;40.47;;
51296;SDS011;37380;45.186;9.792;2022-12-05T16:19:51;66.22;;;41.13;;
51296;SDS011;37380;45.186;9.792;2022-12-05T16:22:23;57.80;;;36.35;;
51296;SDS011;37380;45.186;9.792;2022-12-05T16:24:59;63.40;;;36.05;;
51296;SDS011;37380;45.186;9.792;2022-12-05T16:27:57;52.20;;;34.40;;
51296;SDS011;37380;45.186;9.792;2022-12-05T16:30:34;62.45;;;36.45;;
51296;SDS011;37380;45.186;9.792;2022-12-05T16:33:11;57.20;;;35.00;;
51296;SDS011;37380;45.186;9.792;2022-12-05T16:35:43;64.88;;;32.30;;
51296;SDS011;37380;45.186;9.792;2022-12-05T16:38:13;54.88;;;32.95;;
51296;SDS011;37380;45.186;9.792;2022-12-05T16:43:22;54.65;;;30.55;;
51296;SDS011;37380;45.186;9.792;2022-12-05T16:46:41;54.95;;;31.48;;
51296;SDS011;37380;45.186;9.792;2022-12-05T16:49:18;49.47;;;31.98;;
51296;SDS011;37380;45.186;9.792;2022-12-05T16:54:42;66.15;;;28.80;;
51296;SDS011;37380;45.186;9.792;2022-12-05T16:57:45;48.92;;;29.45;;
51296;SDS011;37380;45.186;9.792;2022-12-05T17:00:39;46.58;;;29.35;;
51296;SDS011;37380;45.186;9.792;2022-12-05T17:03:14;51.15;;;30.83;;
51296;SDS011;37380;45.186;9.792;2022-12-05T17:06:15;52.92;;;32.70;;
51296;SDS011;37380;45.186;9.792;2022-12-05T17:08:43;64.30;;;35.60;;
51296;SDS011;37380;45.186;9.792;2022-12-05T17:11:18;50.75;;;32.83;;
51296;SDS011;37380;45.186;9.792;2022-12-05T17:13:46;57.65;;;35.60;;
51296;SDS011;37380;45.186;9.792;2022-12-05T17:16:15;57.22;;;31.92;;
51296;SDS011;37380;45.186;9.792;2022-12-05T17:18:50;51.63;;;31.92;;
51296;SDS011;37380;45.186;9.792;2022-12-05T17:21:51;44.70;;;33.00;;
51296;SDS011;37380;45.186;9.792;2022-12-05T17:24:45;52.40;;;30.92;;
51296;SDS011;37380;45.186;9.792;2022-12-05T17:27:19;56.67;;;31.98;;
51296;SDS011;37380;45.186;9.792;2022-12-05T17:30:14;44.15;;;29.83;;
51296;SDS011;37380;45.186;9.792;2022-12-05T17:32:47;56.88;;;30.73;;
51296;SDS011;37380;45.186;9.792;2022-12-05T17:35:42;45.15;;;32.33;;
51296;SDS011;37380;45.186;9.792;2022-12-05T17:38:09;49.38;;;34.40;;
51296;SDS011;37380;45.186;9.792;2022-12-05T17:40:37;54.13;;;35.40;;
51296;SDS011;37380;45.186;9.792;2022-12-05T17:43:11;51.85;;;35.35;;
51296;SDS011;37380;45.186;9.792;2022-12-05T17:46:06;52.65;;;36.10;;
51296;SDS011;37380;45.186;9.792;2022-12-05T17:48:35;49.60;;;35.17;;
51296;SDS011;37380;45.186;9.792;2022-12-05T17:51:02;48.25;;;34.03;;
51296;SDS011;37380;45.186;9.792;2022-12-05T17:53:39;49.22;;;34.72;;
51296;SDS011;37380;45.186;9.792;2022-12-05T17:56:34;41.85;;;31.38;;
51296;SDS011;37380;45.186;9.792;2022-12-05T17:59:02;37.83;;;27.83;;
51296;SDS011;37380;45.186;9.792;2022-12-05T18:01:33;50.95;;;34.72;;
51296;SDS011;37380;45.186;9.792;2022-12-05T18:04:06;53.00;;;36.10;;
51296;SDS011;37380;45.186;9.792;2022-12-05T18:07:09;48.28;;;30.27;;
51296;SDS011;37380;45.186;9.792;2022-12-05T18:10:04;50.55;;;35.33;;
51296;SDS011;37380;45.186;9.792;2022-12-05T18:12:46;47.20;;;33.67;;
51296;SDS011;37380;45.186;9.792;2022-12-05T18:15:47;58.15;;;34.80;;
51296;SDS011;37380;45.186;9.792;2022-12-05T18:18:16;53.60;;;39.15;;
51296;SDS011;37380;45.186;9.792;2022-12-05T18:20:43;51.28;;;36.15;;